createdAt,value
2022-07-28T00:01:13.897Z,8.10
2022-07-28T00:03:42.067Z,6.60
2022-07-28T00:06:11.713Z,7.83
2022-07-28T00:08:40.049Z,7.97
2022-07-28T00:11:08.335Z,9.73
2022-07-28T00:13:36.838Z,9.40
2022-07-28T00:16:08.196Z,9.43
2022-07-28T00:18:36.924Z,9.40
2022-07-28T00:21:05.718Z,9.00
2022-07-28T00:23:39.236Z,9.20
2022-07-28T00:26:11.203Z,9.63
2022-07-28T00:28:40.209Z,9.90
2022-07-28T00:31:10.983Z,10.47
2022-07-28T00:33:43.594Z,8.90
2022-07-28T00:36:13.237Z,9.27
2022-07-28T00:38:43.984Z,9.27
2022-07-28T00:41:12.955Z,9.27
2022-07-28T00:43:42.261Z,11.40
2022-07-28T00:46:10.984Z,11.63
2022-07-28T00:48:40.222Z,9.80
2022-07-28T00:51:10.036Z,9.30
2022-07-28T00:53:38.483Z,10.40
2022-07-28T00:56:08.765Z,11.30
2022-07-28T00:58:37.664Z,10.83
2022-07-28T01:01:07.140Z,10.27
2022-07-28T01:03:37.654Z,10.57
2022-07-28T01:06:11.634Z,10.70
2022-07-28T01:08:53.435Z,11.63
2022-07-28T01:11:32.217Z,10.70
2022-07-28T01:14:18.428Z,10.97
2022-07-28T01:16:55.302Z,11.50
2022-07-28T01:19:38.874Z,10.93
2022-07-28T01:22:10.665Z,14.57
2022-07-28T01:24:54.605Z,11.30
2022-07-28T01:27:41.885Z,12.97
2022-07-28T01:30:33.513Z,13.27
2022-07-28T01:33:05.558Z,10.73
2022-07-28T01:35:39.103Z,11.80
2022-07-28T01:38:11.624Z,10.73
2022-07-28T01:40:43.694Z,13.93
2022-07-28T01:43:17.856Z,12.40
2022-07-28T01:45:48.054Z,11.37
2022-07-28T01:48:19.069Z,12.83
2022-07-28T01:50:49.985Z,12.47
2022-07-28T01:53:18.908Z,11.90
2022-07-28T01:55:50.198Z,12.47
2022-07-28T01:58:21.442Z,11.07
2022-07-28T02:00:52.593Z,11.40
2022-07-28T02:03:25.295Z,12.03
2022-07-28T02:05:56.896Z,11.33
2022-07-28T02:08:26.670Z,11.30
2022-07-28T02:11:14.564Z,12.20
2022-07-28T02:13:45.276Z,10.73
2022-07-28T02:16:17.178Z,10.77
2022-07-28T02:18:46.341Z,10.83
2022-07-28T02:21:16.050Z,11.47
2022-07-28T02:23:46.950Z,11.23
2022-07-28T02:26:18.397Z,11.43
2022-07-28T02:28:51.412Z,13.07
2022-07-28T02:31:27.095Z,12.27
2022-07-28T02:34:02.236Z,10.67
2022-07-28T02:36:34.280Z,11.27
2022-07-28T02:39:06.563Z,13.70
2022-07-28T02:41:39.205Z,10.23
2022-07-28T02:44:14.314Z,12.07
2022-07-28T02:46:47.828Z,12.83
2022-07-28T02:49:20.962Z,11.03
2022-07-28T02:51:52.260Z,10.63
2022-07-28T02:54:22.127Z,10.87
2022-07-28T02:56:53.435Z,13.40
2022-07-28T02:59:23.003Z,10.13
2022-07-28T03:01:53.153Z,10.30
2022-07-28T03:04:42.278Z,11.17
2022-07-28T03:07:11.394Z,10.30
2022-07-28T03:09:41.781Z,10.20
2022-07-28T03:12:12.410Z,12.00
2022-07-28T03:14:42.758Z,11.07
2022-07-28T03:17:12.487Z,11.70
2022-07-28T03:19:40.836Z,11.23
2022-07-28T03:22:12.945Z,10.87
2022-07-28T03:24:46.547Z,10.67
2022-07-28T03:27:25.918Z,11.77
2022-07-28T03:30:03.426Z,10.57
2022-07-28T03:32:36.336Z,10.80
2022-07-28T03:35:05.078Z,11.23
2022-07-28T03:37:39.137Z,10.60
2022-07-28T03:40:13.218Z,12.80
2022-07-28T03:42:44.674Z,11.23
2022-07-28T03:45:12.906Z,11.17
2022-07-28T03:47:51.731Z,11.70
2022-07-28T03:50:22.696Z,13.27
2022-07-28T03:52:51.162Z,12.43
2022-07-28T03:55:19.733Z,13.83
2022-07-28T03:57:48.137Z,10.37
2022-07-28T04:00:19.686Z,10.90
2022-07-28T04:02:49.414Z,11.73
2022-07-28T04:05:19.243Z,12.10
2022-07-28T04:07:48.089Z,12.63
2022-07-28T04:10:19.501Z,10.70
2022-07-28T04:12:49.662Z,12.83
2022-07-28T04:15:18.974Z,10.33
2022-07-28T04:17:49.568Z,13.97
2022-07-28T04:20:18.385Z,12.60
2022-07-28T04:22:48.175Z,11.73
2022-07-28T04:25:18.502Z,10.30
2022-07-28T04:27:47.287Z,12.10
2022-07-28T04:30:19.443Z,10.03
2022-07-28T04:32:51.504Z,10.30
2022-07-28T04:35:20.090Z,11.43
2022-07-28T04:37:49.746Z,12.83
2022-07-28T04:40:17.941Z,10.87
2022-07-28T04:42:46.227Z,10.33
2022-07-28T04:45:15.065Z,12.53
2022-07-28T04:47:43.375Z,10.53
2022-07-28T04:50:15.805Z,11.67
2022-07-28T04:52:44.017Z,11.17
2022-07-28T04:55:13.816Z,10.27
2022-07-28T04:57:42.551Z,10.93
2022-07-28T05:00:13.857Z,11.47
2022-07-28T05:02:42.823Z,10.47
2022-07-28T05:05:13.410Z,10.27
2022-07-28T05:07:42.586Z,10.50
2022-07-28T05:10:15.893Z,10.03
2022-07-28T05:12:45.347Z,11.30
2022-07-28T05:15:14.052Z,11.80
2022-07-28T05:17:42.247Z,11.07
2022-07-28T05:20:14.683Z,9.93
2022-07-28T05:22:44.497Z,10.00
2022-07-28T05:25:20.967Z,9.63
2022-07-28T05:27:50.689Z,10.70
2022-07-28T05:30:19.916Z,10.13
2022-07-28T05:32:51.044Z,10.87
2022-07-28T05:35:21.595Z,11.00
2022-07-28T05:37:50.125Z,9.80
2022-07-28T05:40:19.790Z,9.50
2022-07-28T05:42:48.652Z,10.43
2022-07-28T05:45:17.894Z,13.03
2022-07-28T05:47:47.807Z,10.00
2022-07-28T05:50:17.378Z,11.23
2022-07-28T05:52:48.371Z,10.50
2022-07-28T05:55:18.817Z,9.70
2022-07-28T05:57:47.519Z,10.97
2022-07-28T06:00:21.703Z,8.70
2022-07-28T06:02:51.373Z,9.10
2022-07-28T06:05:21.140Z,7.80
2022-07-28T06:07:52.674Z,8.47
2022-07-28T06:10:23.095Z,10.63
2022-07-28T06:12:54.774Z,7.80
2022-07-28T06:15:26.237Z,8.33
2022-07-28T06:17:56.006Z,6.33
2022-07-28T06:20:25.591Z,8.67
2022-07-28T06:22:58.945Z,8.53
2022-07-28T06:25:28.958Z,5.70
2022-07-28T06:27:58.358Z,9.47
2022-07-28T06:30:28.157Z,6.83
2022-07-28T06:32:57.931Z,7.77
2022-07-28T06:35:27.311Z,6.40
2022-07-28T06:37:57.318Z,6.30
2022-07-28T06:40:25.542Z,6.27
2022-07-28T06:42:53.709Z,8.67
2022-07-28T06:45:22.246Z,7.93
2022-07-28T06:47:51.241Z,4.83
2022-07-28T06:50:25.630Z,5.80
2022-07-28T06:52:59.454Z,7.17
2022-07-28T06:55:35.231Z,6.20
2022-07-28T06:58:04.549Z,8.10
2022-07-28T07:00:33.032Z,4.93
2022-07-28T07:03:01.720Z,6.47
2022-07-28T07:05:32.459Z,7.13
2022-07-28T07:08:02.470Z,5.00
2022-07-28T07:10:32.797Z,6.90
2022-07-28T07:13:00.928Z,5.17
2022-07-28T07:15:29.342Z,5.50
2022-07-28T07:17:57.469Z,4.87
2022-07-28T07:20:25.655Z,6.13
2022-07-28T07:22:55.657Z,6.33
2022-07-28T07:25:25.947Z,4.77
2022-07-28T07:27:54.114Z,5.27
2022-07-28T07:30:22.308Z,5.57
2022-07-28T07:32:50.742Z,4.55
2022-07-28T07:35:19.462Z,5.72
2022-07-28T07:37:47.624Z,7.85
2022-07-28T07:40:15.745Z,5.20
2022-07-28T07:42:45.480Z,6.15
2022-07-28T07:45:14.545Z,5.07
2022-07-28T07:47:42.848Z,5.38
2022-07-28T07:50:11.311Z,6.35
2022-07-28T07:52:39.461Z,5.03
2022-07-28T07:55:08.680Z,4.68
2022-07-28T07:57:36.807Z,5.18
2022-07-28T08:00:08.562Z,5.15
2022-07-28T08:02:56.673Z,6.57
2022-07-28T08:05:34.976Z,4.53
2022-07-28T08:08:05.853Z,7.07
2022-07-28T08:10:34.682Z,5.05
2022-07-28T08:13:03.346Z,6.20
2022-07-28T08:15:34.641Z,7.60
2022-07-28T08:18:03.535Z,4.57
2022-07-28T08:20:31.715Z,6.50
2022-07-28T08:23:02.608Z,5.07
2022-07-28T08:25:30.913Z,6.93
2022-07-28T08:28:01.173Z,5.38
2022-07-28T08:30:32.744Z,3.28
2022-07-28T08:33:03.741Z,6.28
2022-07-28T08:35:34.350Z,4.45
2022-07-28T08:38:05.299Z,4.28
2022-07-28T08:40:34.081Z,5.38
2022-07-28T08:43:08.213Z,3.55
2022-07-28T08:45:37.710Z,3.97
2022-07-28T08:48:11.717Z,6.57
2022-07-28T08:50:40.218Z,3.35
2022-07-28T08:53:11.565Z,4.63
2022-07-28T08:55:40.865Z,6.60
2022-07-28T08:58:09.146Z,4.85
2022-07-28T09:00:37.532Z,4.22
2022-07-28T09:03:07.762Z,6.15
2022-07-28T09:05:37.274Z,5.70
2022-07-28T09:08:06.432Z,4.05
2022-07-28T09:10:59.353Z,4.90
2022-07-28T09:13:30.663Z,5.03
2022-07-28T09:16:00.340Z,5.22
2022-07-28T09:18:29.919Z,5.72
2022-07-28T09:20:58.095Z,3.88
2022-07-28T09:23:42.216Z,6.50
2022-07-28T09:26:13.746Z,4.45
2022-07-28T09:28:49.471Z,3.95
2022-07-28T09:31:18.021Z,4.65
2022-07-28T09:34:00.818Z,4.18
2022-07-28T09:36:30.365Z,5.50
2022-07-28T09:38:59.285Z,3.60
2022-07-28T09:41:27.466Z,5.28
2022-07-28T09:43:57.578Z,3.85
2022-07-28T09:46:29.583Z,3.58
2022-07-28T09:49:04.478Z,3.10
2022-07-28T09:51:34.271Z,5.68
2022-07-28T09:54:10.349Z,4.85
2022-07-28T09:56:39.955Z,4.18
2022-07-28T09:59:09.249Z,5.65
2022-07-28T10:01:53.370Z,5.95
2022-07-28T10:04:34.340Z,3.97
2022-07-28T10:07:06.957Z,2.90
2022-07-28T10:09:36.081Z,7.00
2022-07-28T10:12:21.419Z,4.22
2022-07-28T10:14:52.464Z,3.97
2022-07-28T10:17:29.214Z,4.13
2022-07-28T10:19:59.612Z,4.00
2022-07-28T10:22:29.952Z,3.83
2022-07-28T10:25:01.810Z,4.50
2022-07-28T10:27:31.373Z,3.92
2022-07-28T10:30:02.138Z,3.70
2022-07-28T10:32:33.215Z,5.35
2022-07-28T10:35:06.417Z,6.43
2022-07-28T10:37:39.195Z,2.33
2022-07-28T10:40:10.851Z,5.60
2022-07-28T10:42:41.000Z,5.97
2022-07-28T10:45:12.134Z,6.45
2022-07-28T10:47:40.569Z,4.15
2022-07-28T10:50:12.257Z,5.05
2022-07-28T10:52:49.917Z,3.15
2022-07-28T10:55:39.064Z,6.22
2022-07-28T10:58:15.908Z,4.30
2022-07-28T11:00:59.995Z,3.88
2022-07-28T11:03:42.818Z,4.60
2022-07-28T11:06:34.592Z,5.18
2022-07-28T11:09:22.917Z,4.75
2022-07-28T11:11:53.328Z,5.55
2022-07-28T11:14:37.492Z,5.03
2022-07-28T11:17:24.345Z,3.92
2022-07-28T11:20:27.027Z,5.15
2022-07-28T11:22:52.695Z,4.55
2022-07-28T11:25:22.753Z,6.00
2022-07-28T11:28:07.460Z,3.05
2022-07-28T11:30:54.424Z,3.10
2022-07-28T11:33:25.373Z,6.55
2022-07-28T11:36:02.214Z,5.82
2022-07-28T11:38:32.066Z,3.10
2022-07-28T11:41:00.283Z,4.25
2022-07-28T11:43:39.159Z,5.18
2022-07-28T11:46:23.595Z,5.07
2022-07-28T11:49:18.455Z,6.00
2022-07-28T11:52:09.216Z,5.83
2022-07-28T11:54:39.757Z,3.97
2022-07-28T11:57:11.689Z,7.20
2022-07-28T11:59:51.309Z,3.97
2022-07-28T12:02:21.938Z,4.60
2022-07-28T12:05:06.129Z,4.83
2022-07-28T12:07:46.407Z,6.17
2022-07-28T12:13:28.808Z,3.90
2022-07-28T12:15:58.226Z,4.80
2022-07-28T12:18:26.453Z,5.20
2022-07-28T12:20:55.428Z,5.53
2022-07-28T12:23:45.515Z,4.27
2022-07-28T12:26:41.551Z,5.53
2022-07-28T12:29:13.363Z,7.73
2022-07-28T12:31:56.348Z,3.43
2022-07-28T12:34:29.195Z,3.40
2022-07-28T12:37:02.185Z,8.57
2022-07-28T12:39:32.400Z,3.67
2022-07-28T12:42:06.988Z,4.63
2022-07-28T12:44:37.016Z,3.17
2022-07-28T12:47:08.799Z,5.77
2022-07-28T12:49:38.123Z,3.83
2022-07-28T12:52:17.578Z,7.30
2022-07-28T12:54:54.266Z,6.27
2022-07-28T12:57:50.302Z,3.63
2022-07-28T13:00:21.529Z,6.57
2022-07-28T13:02:50.816Z,5.90
2022-07-28T13:05:55.094Z,4.83
2022-07-28T13:08:23.999Z,4.23
2022-07-28T13:10:57.108Z,7.27
2022-07-28T13:13:27.917Z,6.17
2022-07-28T13:16:16.508Z,3.87
2022-07-28T13:18:47.274Z,3.93
2022-07-28T13:21:16.756Z,4.83
2022-07-28T13:23:45.812Z,5.63
2022-07-28T13:26:14.134Z,5.60
2022-07-28T13:28:43.646Z,5.17
2022-07-28T13:31:11.990Z,2.93
2022-07-28T13:33:40.326Z,4.47
2022-07-28T13:36:11.460Z,3.80
2022-07-28T13:38:39.807Z,2.87
2022-07-28T13:41:09.014Z,5.47
2022-07-28T13:43:37.574Z,3.80
2022-07-28T13:46:07.194Z,5.27
2022-07-28T13:48:59.865Z,3.87
2022-07-28T13:51:29.131Z,4.17
2022-07-28T13:54:04.331Z,4.73
2022-07-28T13:56:42.791Z,3.50
2022-07-28T13:59:13.354Z,4.27
2022-07-28T14:01:43.245Z,4.27
2022-07-28T14:04:17.105Z,5.10
2022-07-28T14:06:45.974Z,5.47
2022-07-28T14:09:18.193Z,4.53
2022-07-28T14:11:49.925Z,4.53
2022-07-28T14:14:23.928Z,7.27
2022-07-28T14:16:55.249Z,3.27
2022-07-28T14:19:38.513Z,5.30
2022-07-28T14:22:13.173Z,3.60
2022-07-28T14:24:42.968Z,3.93
2022-07-28T14:27:11.506Z,4.20
2022-07-28T14:29:40.239Z,3.93
2022-07-28T14:32:09.754Z,5.87
2022-07-28T14:34:39.783Z,5.37
2022-07-28T14:37:08.819Z,5.23
2022-07-28T14:39:38.263Z,3.67
2022-07-28T14:42:07.520Z,6.20
2022-07-28T14:44:36.146Z,3.30
2022-07-28T14:47:04.571Z,5.10
2022-07-28T14:49:35.099Z,3.83
2022-07-28T14:52:04.598Z,2.80
2022-07-28T14:54:35.105Z,4.60
2022-07-28T14:57:04.464Z,3.67
2022-07-28T14:59:33.116Z,4.87
2022-07-28T15:02:05.422Z,3.10
2022-07-28T15:04:35.522Z,5.13
2022-07-28T15:07:04.170Z,3.13
2022-07-28T15:09:32.893Z,5.10
2022-07-28T15:12:01.339Z,4.03
2022-07-28T15:14:29.985Z,2.67
2022-07-28T15:16:58.896Z,3.77
2022-07-28T15:19:27.179Z,4.30
2022-07-28T15:21:56.770Z,2.90
2022-07-28T15:24:29.732Z,2.40
2022-07-28T15:26:58.835Z,4.03
2022-07-28T15:29:32.164Z,3.67
2022-07-28T15:32:04.803Z,3.00
2022-07-28T15:34:34.707Z,3.60
2022-07-28T15:37:04.644Z,3.47
2022-07-28T15:39:33.292Z,4.23
2022-07-28T15:42:02.174Z,3.03
2022-07-28T15:44:31.447Z,2.60
2022-07-28T15:46:59.743Z,3.47
2022-07-28T15:49:37.217Z,3.27
2022-07-28T15:52:07.708Z,4.77
2022-07-28T15:54:36.392Z,5.70
2022-07-28T15:57:05.213Z,4.30
2022-07-28T15:59:49.941Z,4.40
2022-07-28T16:02:19.800Z,2.70
2022-07-28T16:04:53.626Z,5.53
2022-07-28T16:07:24.506Z,5.07
2022-07-28T16:09:55.093Z,3.63
2022-07-28T16:12:26.717Z,6.20
2022-07-28T16:14:55.489Z,4.23
2022-07-28T16:17:24.705Z,4.47
2022-07-28T16:19:54.102Z,4.80
2022-07-28T16:22:23.977Z,3.00
2022-07-28T16:24:53.816Z,2.50
2022-07-28T16:27:22.125Z,3.50
2022-07-28T16:29:50.604Z,4.20
2022-07-28T16:32:18.903Z,4.53
2022-07-28T16:34:49.193Z,3.60
2022-07-28T16:37:19.697Z,3.83
2022-07-28T16:39:50.154Z,4.37
2022-07-28T16:42:18.706Z,6.40
2022-07-28T16:44:47.469Z,3.33
2022-07-28T16:47:17.869Z,7.63
2022-07-28T16:49:46.670Z,3.00
2022-07-28T16:52:15.104Z,5.93
2022-07-28T16:54:43.823Z,2.47
2022-07-28T16:57:13.984Z,4.60
2022-07-28T16:59:48.422Z,4.40
2022-07-28T17:02:19.192Z,4.53
2022-07-28T17:04:50.670Z,5.20
2022-07-28T17:07:23.228Z,3.37
2022-07-28T17:09:52.075Z,3.17
2022-07-28T17:12:22.546Z,4.27
2022-07-28T17:14:52.120Z,4.13
2022-07-28T17:17:20.376Z,5.90
2022-07-28T17:19:48.933Z,6.53
2022-07-28T17:22:18.374Z,6.60
2022-07-28T17:24:49.007Z,4.00
2022-07-28T17:27:37.753Z,3.90
2022-07-28T17:30:09.080Z,3.40
2022-07-28T17:32:37.711Z,5.47
2022-07-28T17:35:07.508Z,6.53
2022-07-28T17:37:55.939Z,4.80
2022-07-28T17:40:27.509Z,7.53
2022-07-28T17:42:59.242Z,3.93
2022-07-28T17:45:29.471Z,4.23
2022-07-28T17:47:57.860Z,5.30
2022-07-28T17:50:26.215Z,3.60
2022-07-28T17:52:55.880Z,5.10
2022-07-28T17:56:00.686Z,5.40
2022-07-28T17:58:31.936Z,3.97
2022-07-28T18:01:10.972Z,3.33
2022-07-28T18:03:56.990Z,5.93
2022-07-28T18:06:30.994Z,4.00
2022-07-28T18:09:05.260Z,3.93
2022-07-28T18:11:56.835Z,4.67
2022-07-28T18:14:27.846Z,4.90
2022-07-28T18:16:58.557Z,3.80
2022-07-28T18:19:27.283Z,4.97
2022-07-28T18:21:56.056Z,4.57
2022-07-28T18:24:24.837Z,3.67
2022-07-28T18:26:53.717Z,4.63
2022-07-28T18:29:23.139Z,3.67
2022-07-28T18:31:52.477Z,8.10
2022-07-28T18:34:23.308Z,5.47
2022-07-28T18:36:53.479Z,5.47
2022-07-28T18:39:22.069Z,5.43
2022-07-28T18:41:50.563Z,6.20
2022-07-28T18:44:20.129Z,6.37
2022-07-28T18:46:49.146Z,6.73
2022-07-28T18:49:18.214Z,7.20
2022-07-28T18:51:49.461Z,6.53
2022-07-28T18:54:27.208Z,7.60
2022-07-28T18:56:56.835Z,9.17
2022-07-28T18:59:28.029Z,6.53
2022-07-28T19:01:56.639Z,9.50
2022-07-28T19:04:27.220Z,8.47
2022-07-28T19:06:57.228Z,9.37
2022-07-28T19:09:25.967Z,6.83
2022-07-28T19:11:57.286Z,10.47
2022-07-28T19:14:28.697Z,8.60
2022-07-28T19:17:00.528Z,12.13
2022-07-28T19:19:29.221Z,8.43
2022-07-28T19:21:59.479Z,8.27
2022-07-28T19:24:28.229Z,5.07
2022-07-28T19:26:56.497Z,11.67
2022-07-28T19:29:28.863Z,9.60
2022-07-28T19:31:57.150Z,8.37
2022-07-28T19:34:25.941Z,12.50
2022-07-28T19:36:55.505Z,6.43
2022-07-28T19:39:25.625Z,10.30
2022-07-28T19:41:54.503Z,12.53
2022-07-28T19:44:23.183Z,14.90
2022-07-28T19:46:53.230Z,12.10
2022-07-28T19:49:23.698Z,8.13
2022-07-28T19:51:55.922Z,7.23
2022-07-28T19:54:25.658Z,10.87
2022-07-28T19:56:54.756Z,7.83
2022-07-28T19:59:24.438Z,10.37
2022-07-28T20:01:53.808Z,8.40
2022-07-28T20:04:25.376Z,5.60
2022-07-28T20:06:55.711Z,8.83
2022-07-28T20:09:28.779Z,7.20
2022-07-28T20:11:57.513Z,6.97
2022-07-28T20:14:27.362Z,12.20
2022-07-28T20:16:57.251Z,7.87
2022-07-28T20:19:25.808Z,9.90
2022-07-28T20:21:54.485Z,9.67
2022-07-28T20:24:24.179Z,12.70
2022-07-28T20:26:53.790Z,4.67
2022-07-28T20:29:22.873Z,11.67
2022-07-28T20:31:54.697Z,8.60
2022-07-28T20:34:23.137Z,6.30
2022-07-28T20:36:53.448Z,6.77
2022-07-28T20:39:43.797Z,6.20
2022-07-28T20:42:12.369Z,5.87
2022-07-28T20:44:40.598Z,4.83
2022-07-28T20:47:08.900Z,6.27
2022-07-28T20:49:37.140Z,4.43
2022-07-28T20:52:06.749Z,6.80
2022-07-28T20:54:36.081Z,6.53
2022-07-28T20:57:04.362Z,4.37
2022-07-28T20:59:34.071Z,8.23
2022-07-28T21:02:02.730Z,7.43
2022-07-28T21:04:31.010Z,6.80
2022-07-28T21:07:04.798Z,6.57
2022-07-28T21:09:35.761Z,5.93
2022-07-28T21:12:04.428Z,6.20
2022-07-28T21:14:34.488Z,5.53
2022-07-28T21:17:03.415Z,6.93
2022-07-28T21:19:32.476Z,6.73
2022-07-28T21:22:01.029Z,7.40
2022-07-28T21:24:29.268Z,6.93
2022-07-28T21:26:57.624Z,8.23
2022-07-28T21:32:05.477Z,10.57
2022-07-28T21:34:35.460Z,11.53
2022-07-28T21:37:04.068Z,10.77
2022-07-28T21:39:32.728Z,7.77
2022-07-28T21:42:03.765Z,8.63
2022-07-28T21:44:35.267Z,10.63
2022-07-28T21:47:05.057Z,8.67
2022-07-28T21:49:33.644Z,9.67
2022-07-28T21:52:01.880Z,9.87
2022-07-28T21:54:30.173Z,8.57
2022-07-28T21:56:58.820Z,9.77
2022-07-28T21:59:27.071Z,8.37
2022-07-28T22:01:55.383Z,8.07
2022-07-28T22:04:26.909Z,4.67
2022-07-28T22:06:55.177Z,6.87
2022-07-28T22:09:23.353Z,6.17
2022-07-28T22:11:51.767Z,5.70
2022-07-28T22:14:20.311Z,5.30
2022-07-28T22:16:49.107Z,5.03
2022-07-28T22:19:17.401Z,3.77
2022-07-28T22:21:47.828Z,7.40
2022-07-28T22:24:18.944Z,3.80
2022-07-28T22:26:47.107Z,3.60
2022-07-28T22:29:16.389Z,3.77
2022-07-28T22:31:44.816Z,3.30
2022-07-28T22:34:14.023Z,2.90
2022-07-28T22:36:44.714Z,3.10
2022-07-28T22:39:15.914Z,3.83
2022-07-28T22:41:44.482Z,2.57
2022-07-28T22:44:15.487Z,4.00
2022-07-28T22:46:46.745Z,4.27
2022-07-28T22:49:15.009Z,2.60
2022-07-28T22:51:47.819Z,3.23
2022-07-28T22:54:18.521Z,4.10
2022-07-28T22:56:49.902Z,3.23
2022-07-28T22:59:18.016Z,2.80
2022-07-28T23:01:46.294Z,2.20
2022-07-28T23:04:14.942Z,2.50
2022-07-28T23:06:47.025Z,3.20
2022-07-28T23:09:15.237Z,3.07
2022-07-28T23:11:55.492Z,3.13
2022-07-28T23:14:24.074Z,2.20
2022-07-28T23:16:52.643Z,4.23
2022-07-28T23:19:20.914Z,2.40
2022-07-28T23:21:49.104Z,3.03
2022-07-28T23:24:17.906Z,2.00
2022-07-28T23:26:48.023Z,4.23
2022-07-28T23:29:17.051Z,2.70
2022-07-28T23:31:45.271Z,2.00
2022-07-28T23:34:13.906Z,2.33
2022-07-28T23:36:42.357Z,3.07
2022-07-28T23:39:10.522Z,1.97
2022-07-28T23:41:39.012Z,5.23
2022-07-28T23:44:09.900Z,2.70
2022-07-28T23:46:38.276Z,3.33
2022-07-28T23:49:06.611Z,2.47
2022-07-28T23:51:48.057Z,4.27
2022-07-28T23:54:17.938Z,3.30
2022-07-28T23:56:46.495Z,2.40
2022-07-28T23:59:16.029Z,5.07
